createdAt,value
2023-01-18T00:01:09.456Z,5.88
2023-01-18T00:03:38.279Z,5.93
2023-01-18T00:06:08.128Z,6.50
2023-01-18T00:08:36.539Z,6.53
2023-01-18T00:11:04.893Z,6.70
2023-01-18T00:13:32.078Z,7.05
2023-01-18T00:16:04.190Z,6.78
2023-01-18T00:18:31.282Z,7.15
2023-01-18T00:21:05.752Z,7.10
2023-01-18T00:23:33.193Z,6.07
2023-01-18T00:26:04.591Z,6.22
2023-01-18T00:28:31.624Z,8.02
2023-01-18T00:30:58.215Z,6.70
2023-01-18T00:33:24.914Z,6.70
2023-01-18T00:35:59.364Z,7.00
2023-01-18T00:38:26.497Z,8.60
2023-01-18T00:40:53.258Z,9.10
2023-01-18T00:43:38.807Z,8.60
2023-01-18T00:46:06.428Z,10.32
2023-01-18T00:48:33.825Z,9.65
2023-01-18T00:51:00.879Z,8.80
2023-01-18T00:53:27.983Z,13.35
2023-01-18T00:55:54.933Z,11.15
2023-01-18T00:58:21.783Z,9.25
2023-01-18T01:00:51.326Z,9.52
2023-01-18T01:03:18.280Z,8.90
2023-01-18T01:06:03.800Z,10.20
2023-01-18T01:08:30.685Z,9.52
2023-01-18T01:11:09.939Z,10.32
2023-01-18T01:13:56.023Z,9.50
2023-01-18T01:16:41.771Z,12.32
2023-01-18T01:19:26.919Z,11.88
2023-01-18T01:22:11.809Z,11.23
2023-01-18T01:24:56.923Z,11.80
2023-01-18T01:27:23.495Z,14.73
2023-01-18T01:29:52.294Z,12.10
2023-01-18T01:32:18.870Z,12.93
2023-01-18T01:34:45.458Z,11.93
2023-01-18T01:37:12.020Z,14.23
2023-01-18T01:39:38.800Z,13.30
2023-01-18T01:42:05.498Z,13.25
2023-01-18T01:44:34.398Z,10.85
2023-01-18T01:47:10.553Z,10.95
2023-01-18T01:49:42.127Z,10.32
2023-01-18T01:52:16.151Z,12.27
2023-01-18T01:54:58.003Z,10.52
2023-01-18T01:57:32.766Z,10.52
2023-01-18T02:00:09.302Z,12.02
2023-01-18T02:02:40.279Z,10.32
2023-01-18T02:05:09.204Z,10.68
2023-01-18T02:07:36.189Z,8.90
2023-01-18T02:10:04.783Z,11.18
2023-01-18T02:12:33.052Z,9.75
2023-01-18T02:15:00.211Z,8.07
2023-01-18T02:17:42.033Z,10.52
2023-01-18T02:20:47.724Z,8.05
2023-01-18T02:23:33.903Z,8.45
2023-01-18T02:26:19.176Z,9.27
2023-01-18T02:29:01.391Z,7.63
2023-01-18T02:31:34.251Z,7.70
2023-01-18T02:34:07.674Z,6.63
2023-01-18T02:36:52.865Z,7.70
2023-01-18T02:39:31.502Z,8.15
2023-01-18T02:42:36.489Z,6.82
2023-01-18T02:45:28.068Z,5.35
2023-01-18T02:47:55.602Z,6.18
2023-01-18T02:50:26.163Z,5.80
2023-01-18T02:52:53.597Z,5.85
2023-01-18T02:55:28.711Z,6.60
2023-01-18T02:58:21.802Z,5.93
2023-01-18T03:00:54.308Z,5.65
2023-01-18T03:05:50.539Z,4.93
2023-01-18T03:08:31.466Z,4.30
2023-01-18T03:11:03.011Z,4.57
2023-01-18T03:14:22.922Z,4.90
2023-01-18T03:17:23.260Z,4.25
2023-01-18T03:20:09.586Z,4.05
2023-01-18T03:23:12.657Z,4.00
2023-01-18T03:28:41.742Z,4.32
2023-01-18T03:31:31.112Z,4.03
2023-01-18T03:34:06.025Z,5.00
2023-01-18T03:36:38.546Z,3.65
2023-01-18T03:41:40.670Z,3.60
2023-01-18T03:44:20.250Z,4.15
2023-01-18T03:46:47.552Z,4.18
2023-01-18T03:49:16.567Z,3.38
2023-01-18T03:51:55.978Z,4.65
2023-01-18T03:54:41.065Z,4.18
2023-01-18T03:57:22.573Z,3.90
2023-01-18T03:59:49.303Z,3.88
2023-01-18T04:02:17.728Z,4.90
2023-01-18T04:04:44.544Z,4.50
2023-01-18T04:07:11.146Z,4.57
2023-01-18T04:09:37.952Z,5.25
2023-01-18T04:12:04.825Z,5.75
2023-01-18T04:14:31.424Z,7.10
2023-01-18T04:16:58.011Z,4.68
2023-01-18T04:19:24.569Z,5.05
2023-01-18T04:21:51.129Z,6.00
2023-01-18T04:24:17.727Z,5.85
2023-01-18T04:26:44.291Z,5.75
2023-01-18T04:29:10.909Z,6.90
2023-01-18T04:31:37.688Z,7.13
2023-01-18T04:34:04.313Z,6.10
2023-01-18T04:36:31.056Z,6.72
2023-01-18T04:38:58.104Z,7.10
2023-01-18T04:41:24.816Z,6.55
2023-01-18T04:43:51.424Z,6.72
2023-01-18T04:46:18.124Z,7.60
2023-01-18T04:48:44.765Z,8.00
2023-01-18T04:51:13.400Z,6.97
2023-01-18T04:53:44.006Z,7.40
2023-01-18T04:56:11.356Z,8.57
2023-01-18T04:58:38.280Z,10.27
2023-01-18T05:01:07.124Z,8.98
2023-01-18T05:03:38.163Z,9.20
2023-01-18T05:06:10.580Z,8.63
2023-01-18T05:08:40.976Z,8.52
2023-01-18T05:11:10.666Z,7.30
2023-01-18T05:13:38.366Z,8.30
2023-01-18T05:16:06.314Z,8.65
2023-01-18T05:18:33.426Z,7.55
2023-01-18T05:21:00.021Z,8.20
2023-01-18T05:23:26.644Z,8.75
2023-01-18T05:25:57.952Z,8.90
2023-01-18T05:28:26.510Z,8.05
2023-01-18T05:30:54.605Z,8.65
2023-01-18T05:33:22.356Z,7.78
2023-01-18T05:35:54.419Z,8.07
2023-01-18T05:38:22.408Z,8.85
2023-01-18T05:40:52.455Z,7.07
2023-01-18T05:43:20.632Z,7.55
2023-01-18T05:45:47.316Z,9.20
2023-01-18T05:48:13.986Z,10.38
2023-01-18T05:50:45.002Z,11.10
2023-01-18T05:53:16.537Z,11.20
2023-01-18T05:55:43.664Z,11.38
2023-01-18T05:58:10.361Z,9.63
2023-01-18T06:00:36.995Z,9.38
2023-01-18T06:03:03.629Z,9.27
2023-01-18T06:05:30.551Z,9.85
2023-01-18T06:07:57.103Z,9.25
2023-01-18T06:10:23.674Z,8.52
2023-01-18T06:12:50.461Z,8.52
2023-01-18T06:15:17.167Z,8.98
2023-01-18T06:17:46.124Z,9.07
2023-01-18T06:20:13.478Z,8.30
2023-01-18T06:22:40.750Z,9.50
2023-01-18T06:25:09.374Z,9.82
2023-01-18T06:27:37.562Z,8.90
2023-01-18T06:30:06.291Z,8.77
2023-01-18T06:32:32.966Z,10.60
2023-01-18T06:34:59.618Z,11.25
2023-01-18T06:37:26.492Z,11.38
2023-01-18T06:39:53.035Z,13.55
2023-01-18T06:42:19.605Z,11.70
2023-01-18T06:44:46.181Z,12.20
2023-01-18T06:47:13.618Z,11.02
2023-01-18T06:49:40.211Z,12.50
2023-01-18T06:52:06.776Z,10.35
2023-01-18T06:54:33.324Z,12.90
2023-01-18T06:56:59.903Z,11.73
2023-01-18T06:59:28.487Z,11.68
2023-01-18T07:01:55.325Z,12.13
2023-01-18T07:04:22.119Z,10.38
2023-01-18T07:06:48.763Z,8.77
2023-01-18T07:09:15.353Z,9.10
2023-01-18T07:11:43.388Z,8.95
2023-01-18T07:14:11.283Z,9.93
2023-01-18T07:16:38.372Z,11.45
2023-01-18T07:19:05.322Z,11.18
2023-01-18T07:21:32.284Z,10.95
2023-01-18T07:23:59.279Z,14.68
2023-01-18T07:26:26.275Z,14.25
2023-01-18T07:28:54.744Z,15.20
2023-01-18T07:31:23.757Z,16.85
2023-01-18T07:33:50.840Z,14.88
2023-01-18T07:36:17.415Z,16.05
2023-01-18T07:38:44.526Z,15.40
2023-01-18T07:41:14.358Z,12.90
2023-01-18T07:43:41.876Z,13.57
2023-01-18T07:46:10.954Z,9.35
2023-01-18T07:48:38.955Z,13.05
2023-01-18T07:51:08.525Z,12.95
2023-01-18T07:53:36.736Z,13.50
2023-01-18T07:56:06.650Z,13.38
2023-01-18T07:58:35.376Z,12.07
2023-01-18T08:01:08.695Z,11.93
2023-01-18T08:03:36.774Z,9.45
2023-01-18T08:06:05.478Z,12.70
2023-01-18T08:08:32.088Z,14.30
2023-01-18T08:11:00.527Z,18.00
2023-01-18T08:13:27.777Z,17.20
2023-01-18T08:15:55.773Z,17.55
2023-01-18T08:18:23.649Z,20.30
2023-01-18T08:20:50.370Z,20.45
2023-01-18T08:23:17.509Z,21.30
2023-01-18T08:25:45.017Z,22.30
2023-01-18T08:28:11.898Z,24.17
2023-01-18T08:30:41.031Z,26.50
2023-01-18T08:33:08.340Z,26.77
2023-01-18T08:35:41.364Z,30.13
2023-01-18T08:38:08.802Z,28.73
2023-01-18T08:40:35.717Z,31.98
2023-01-18T08:43:04.281Z,35.00
2023-01-18T08:45:31.007Z,33.50
2023-01-18T08:48:03.165Z,37.92
2023-01-18T08:50:31.356Z,32.53
2023-01-18T08:53:00.146Z,34.50
2023-01-18T08:55:28.154Z,34.70
2023-01-18T08:57:56.735Z,33.58
2023-01-18T09:00:26.865Z,34.40
2023-01-18T09:02:53.672Z,31.90
2023-01-18T09:05:20.319Z,34.72
2023-01-18T09:07:47.454Z,37.03
2023-01-18T09:10:14.233Z,39.00
2023-01-18T09:12:41.090Z,34.60
2023-01-18T09:15:08.882Z,35.22
2023-01-18T09:17:35.596Z,34.25
2023-01-18T09:20:03.070Z,29.17
2023-01-18T09:22:29.734Z,28.55
2023-01-18T09:24:57.569Z,28.98
2023-01-18T09:27:24.250Z,28.05
2023-01-18T09:29:52.373Z,22.25
2023-01-18T09:32:20.019Z,20.80
2023-01-18T09:34:50.783Z,19.20
2023-01-18T09:37:19.041Z,20.15
2023-01-18T09:39:51.879Z,21.02
2023-01-18T09:42:29.954Z,19.23
2023-01-18T09:44:59.499Z,17.60
2023-01-18T09:47:32.037Z,17.70
2023-01-18T09:50:02.361Z,16.70
2023-01-18T09:52:31.847Z,18.17
2023-01-18T09:55:05.502Z,17.67
2023-01-18T09:57:55.309Z,16.17
2023-01-18T10:00:26.044Z,16.08
2023-01-18T10:03:00.955Z,17.45
2023-01-18T10:05:33.309Z,15.43
2023-01-18T10:08:07.727Z,17.00
2023-01-18T10:10:39.070Z,16.13
2023-01-18T10:13:47.184Z,14.93
2023-01-18T10:16:15.478Z,14.45
2023-01-18T10:18:48.339Z,15.70
2023-01-18T10:21:24.697Z,16.98
2023-01-18T10:24:13.715Z,15.65
2023-01-18T10:26:41.456Z,14.65
2023-01-18T10:29:12.869Z,14.40
2023-01-18T10:31:59.094Z,14.00
2023-01-18T10:34:34.605Z,15.23
2023-01-18T10:37:14.918Z,15.90
2023-01-18T10:39:50.945Z,17.27
2023-01-18T10:42:23.783Z,13.05
2023-01-18T10:44:50.776Z,11.63
2023-01-18T10:47:19.851Z,7.97
2023-01-18T10:49:50.446Z,8.27
2023-01-18T10:52:35.076Z,6.75
2023-01-18T10:55:07.416Z,8.60
2023-01-18T11:00:33.626Z,8.57
2023-01-18T11:03:03.864Z,9.10
2023-01-18T11:05:40.228Z,7.93
2023-01-18T11:08:25.379Z,8.32
2023-01-18T11:11:18.177Z,7.15
2023-01-18T11:16:15.767Z,9.23
2023-01-18T11:19:15.918Z,10.60
2023-01-18T11:21:51.612Z,6.68
2023-01-18T11:24:27.358Z,5.70
2023-01-18T11:27:14.127Z,3.85
2023-01-18T11:29:44.231Z,4.47
2023-01-18T11:32:22.664Z,3.75
2023-01-18T11:34:52.389Z,4.45
2023-01-18T11:37:36.333Z,5.60
2023-01-18T11:40:33.690Z,4.35
2023-01-18T11:43:12.224Z,9.45
2023-01-18T11:45:48.075Z,8.50
2023-01-18T11:48:30.840Z,6.80
2023-01-18T11:51:02.546Z,5.93
2023-01-18T11:54:01.583Z,6.78
2023-01-18T11:56:30.993Z,7.70
2023-01-18T11:58:58.150Z,10.18
2023-01-18T12:01:43.520Z,8.13
2023-01-18T12:04:55.944Z,9.95
2023-01-18T12:07:25.172Z,8.43
2023-01-18T12:09:55.276Z,10.18
2023-01-18T12:12:46.835Z,8.65
2023-01-18T12:15:39.606Z,9.45
2023-01-18T12:21:18.966Z,5.53
2023-01-18T12:23:56.357Z,6.55
2023-01-18T12:26:37.061Z,7.93
2023-01-18T12:29:06.454Z,4.88
2023-01-18T12:31:42.119Z,6.95
2023-01-18T12:34:22.096Z,5.32
2023-01-18T12:37:07.434Z,5.90
2023-01-18T12:40:04.943Z,9.05
2023-01-18T12:43:03.680Z,5.20
2023-01-18T12:45:37.939Z,6.32
2023-01-18T12:48:19.731Z,6.22
2023-01-18T12:50:49.705Z,5.70
2023-01-18T12:53:37.631Z,5.93
2023-01-18T12:56:20.078Z,6.07
2023-01-18T12:58:56.342Z,4.22
2023-01-18T13:01:27.474Z,4.32
2023-01-18T13:03:58.503Z,5.10
2023-01-18T13:06:27.138Z,4.28
2023-01-18T13:09:01.039Z,5.00
2023-01-18T13:11:33.046Z,3.50
2023-01-18T13:14:09.451Z,5.40
2023-01-18T13:16:58.199Z,5.03
2023-01-18T13:19:54.689Z,3.58
2023-01-18T13:22:40.253Z,2.50
2023-01-18T13:58:38.684Z,5.53
2023-01-18T14:01:07.661Z,4.05
2023-01-18T14:03:45.369Z,4.43
2023-01-18T14:06:47.180Z,3.78
2023-01-18T14:09:18.365Z,4.05
2023-01-18T14:11:56.856Z,4.53
2023-01-18T14:14:27.445Z,4.78
2023-01-18T14:16:58.031Z,6.00
2023-01-18T14:19:27.409Z,7.07
2023-01-18T14:21:59.540Z,5.00
2023-01-18T14:24:57.310Z,6.25
2023-01-18T14:27:28.426Z,8.02
2023-01-18T14:30:05.072Z,6.65
2023-01-18T14:32:37.719Z,9.13
2023-01-18T14:35:16.876Z,6.93
2023-01-18T14:37:43.442Z,4.90
2023-01-18T14:40:12.817Z,5.32
2023-01-18T14:42:46.164Z,5.13
2023-01-18T14:45:40.663Z,7.38
2023-01-18T14:48:19.334Z,5.57
2023-01-18T14:50:48.635Z,4.88
2023-01-18T14:53:18.809Z,6.22
2023-01-18T14:56:01.936Z,6.30
2023-01-18T14:58:32.915Z,8.38
2023-01-18T15:00:59.635Z,5.75
2023-01-18T15:03:29.637Z,7.68
2023-01-18T15:06:19.531Z,7.22
2023-01-18T15:08:47.183Z,6.35
2023-01-18T15:11:14.153Z,6.70
2023-01-18T15:13:47.627Z,6.28
2023-01-18T15:16:20.507Z,6.32
2023-01-18T15:18:51.823Z,5.68
2023-01-18T15:21:23.475Z,4.90
2023-01-18T15:24:09.096Z,6.68
2023-01-18T15:26:44.938Z,5.82
2023-01-18T15:29:21.076Z,5.53
2023-01-18T15:31:56.985Z,5.18
2023-01-18T15:34:31.123Z,5.53
2023-01-18T15:37:00.518Z,4.53
2023-01-18T15:39:27.485Z,5.75
2023-01-18T15:41:57.048Z,5.35
2023-01-18T15:44:43.181Z,7.53
2023-01-18T15:47:22.841Z,6.40
2023-01-18T15:49:52.577Z,7.60
2023-01-18T15:52:50.260Z,6.15
2023-01-18T15:55:28.411Z,5.55
2023-01-18T15:57:59.606Z,5.88
2023-01-18T16:00:32.241Z,7.23
2023-01-18T16:02:59.446Z,4.57
2023-01-18T16:05:26.836Z,4.80
2023-01-18T16:08:16.151Z,4.95
2023-01-18T16:10:54.843Z,6.43
2023-01-18T16:13:21.355Z,5.22
2023-01-18T16:16:04.466Z,4.88
2023-01-18T16:18:31.654Z,4.18
2023-01-18T16:21:01.326Z,4.43
2023-01-18T16:23:29.528Z,23.63
2023-01-18T16:26:05.549Z,26.92
2023-01-18T16:28:32.198Z,28.33
2023-01-18T16:31:03.146Z,16.88
2023-01-18T16:33:29.913Z,12.40
2023-01-18T16:35:56.671Z,9.15
2023-01-18T16:38:23.787Z,5.97
2023-01-18T16:40:51.350Z,5.68
2023-01-18T16:43:17.886Z,6.53
2023-01-18T16:45:46.469Z,7.90
2023-01-18T16:48:16.592Z,6.78
2023-01-18T16:50:43.192Z,6.63
2023-01-18T16:53:09.957Z,8.10
2023-01-18T16:55:36.933Z,19.35
2023-01-18T16:58:03.678Z,20.65
2023-01-18T17:00:44.158Z,23.05
2023-01-18T17:03:10.719Z,20.02
2023-01-18T17:05:37.298Z,27.75
2023-01-18T17:08:04.938Z,10.00
2023-01-18T17:10:39.802Z,9.05
2023-01-18T17:13:07.191Z,11.32
2023-01-18T17:15:34.820Z,17.95
2023-01-18T17:18:02.448Z,8.93
2023-01-18T17:20:30.511Z,9.90
2023-01-18T17:22:57.392Z,9.30
2023-01-18T17:25:24.442Z,15.60
2023-01-18T17:27:51.102Z,11.13
2023-01-18T17:30:20.860Z,7.75
2023-01-18T17:32:48.021Z,7.53
2023-01-18T17:35:16.531Z,8.48
2023-01-18T17:37:43.203Z,7.03
2023-01-18T17:40:17.124Z,5.60
2023-01-18T17:42:49.543Z,7.43
2023-01-18T17:45:16.231Z,7.80
2023-01-18T17:47:43.540Z,6.97
2023-01-18T17:50:18.920Z,8.35
2023-01-18T17:52:45.592Z,9.80
2023-01-18T17:55:14.337Z,6.95
2023-01-18T17:57:42.893Z,8.90
2023-01-18T18:00:11.815Z,10.15
2023-01-18T18:02:38.514Z,8.35
2023-01-18T18:05:05.574Z,9.23
2023-01-18T18:07:32.435Z,8.75
2023-01-18T18:10:01.326Z,8.35
2023-01-18T18:12:29.642Z,11.02
2023-01-18T18:14:56.330Z,12.50
2023-01-18T18:17:25.659Z,12.40
2023-01-18T18:19:52.235Z,10.98
2023-01-18T18:22:19.876Z,12.07
2023-01-18T18:24:47.820Z,10.38
2023-01-18T18:27:14.910Z,11.57
2023-01-18T18:29:41.507Z,9.82
2023-01-18T18:32:08.355Z,11.15
2023-01-18T18:34:35.815Z,11.52
2023-01-18T18:37:06.304Z,11.52
2023-01-18T18:39:33.339Z,7.40
2023-01-18T18:42:00.423Z,6.05
2023-01-18T18:44:27.425Z,85.40
2023-01-18T18:46:54.296Z,14.75
2023-01-18T18:49:20.980Z,6.15
2023-01-18T18:51:47.562Z,7.50
2023-01-18T18:54:14.203Z,5.57
2023-01-18T18:56:41.524Z,7.78
2023-01-18T18:59:08.247Z,6.63
2023-01-18T19:01:35.282Z,7.57
2023-01-18T19:04:02.168Z,5.45
2023-01-18T19:06:28.775Z,5.82
2023-01-18T19:08:55.789Z,10.00
2023-01-18T19:11:22.352Z,10.52
2023-01-18T19:13:49.688Z,10.73
2023-01-18T19:16:16.789Z,9.40
2023-01-18T19:18:43.497Z,9.65
2023-01-18T19:21:10.081Z,10.35
2023-01-18T19:23:36.740Z,10.88
2023-01-18T19:26:03.917Z,9.13
2023-01-18T19:28:31.245Z,7.07
2023-01-18T19:31:02.586Z,9.10
2023-01-18T19:33:29.620Z,9.20
2023-01-18T19:35:56.256Z,10.13
2023-01-18T19:38:22.954Z,9.68
2023-01-18T19:40:49.563Z,9.82
2023-01-18T19:43:16.359Z,11.52
2023-01-18T19:45:42.929Z,11.50
2023-01-18T19:48:09.487Z,12.68
2023-01-18T19:50:36.189Z,10.60
2023-01-18T19:53:03.727Z,10.93
2023-01-18T19:55:30.636Z,12.48
2023-01-18T19:57:57.863Z,12.25
2023-01-18T20:00:25.724Z,11.90
2023-01-18T20:02:53.549Z,11.05
2023-01-18T20:05:20.534Z,24.33
2023-01-18T20:07:47.272Z,37.38
2023-01-18T20:10:14.073Z,15.60
2023-01-18T20:12:40.730Z,16.63
2023-01-18T20:15:07.716Z,16.58
2023-01-18T20:17:34.354Z,19.92
2023-01-18T20:20:00.927Z,19.45
2023-01-18T20:22:27.497Z,19.33
2023-01-18T20:24:54.460Z,19.52
2023-01-18T20:27:21.068Z,19.25
2023-01-18T20:29:47.674Z,20.73
2023-01-18T20:32:18.112Z,18.15
2023-01-18T20:34:46.908Z,19.02
2023-01-18T20:37:15.236Z,19.10
2023-01-18T20:39:42.453Z,20.83
2023-01-18T20:42:09.484Z,17.20
2023-01-18T20:44:36.234Z,20.77
2023-01-18T20:47:03.461Z,18.73
2023-01-18T20:49:37.682Z,19.48
2023-01-18T20:52:06.742Z,19.27
2023-01-18T20:54:34.869Z,17.63
2023-01-18T20:57:02.726Z,21.63
2023-01-18T20:59:29.395Z,19.00
2023-01-18T21:01:56.193Z,20.58
2023-01-18T21:04:22.906Z,18.33
2023-01-18T21:06:49.905Z,24.08
2023-01-18T21:09:16.924Z,20.40
2023-01-18T21:11:43.872Z,22.20
2023-01-18T21:14:10.480Z,26.23
2023-01-18T21:16:37.209Z,22.48
2023-01-18T21:19:04.532Z,17.38
2023-01-18T21:21:31.868Z,18.35
2023-01-18T21:23:59.203Z,16.38
2023-01-18T21:26:25.904Z,17.95
2023-01-18T21:28:52.848Z,16.80
2023-01-18T21:31:19.420Z,17.88
2023-01-18T21:33:46.039Z,18.70
2023-01-18T21:36:15.643Z,18.23
2023-01-18T21:38:42.305Z,14.15
2023-01-18T21:41:28.286Z,15.80
2023-01-18T21:44:13.415Z,20.50
2023-01-18T21:46:47.959Z,17.40
2023-01-18T21:49:52.198Z,18.40
2023-01-18T21:52:38.916Z,21.25
2023-01-18T21:55:05.928Z,22.80
2023-01-18T21:57:32.570Z,19.20
2023-01-18T21:59:59.105Z,23.83
2023-01-18T22:02:25.808Z,20.98
2023-01-18T22:04:59.086Z,24.33
2023-01-18T22:07:30.238Z,29.65
2023-01-18T22:10:06.101Z,28.67
2023-01-18T22:12:35.046Z,33.33
2023-01-18T22:15:02.261Z,33.10
2023-01-18T22:17:29.031Z,34.55
2023-01-18T22:19:55.671Z,32.03
2023-01-18T22:22:22.273Z,33.42
2023-01-18T22:24:48.803Z,34.95
2023-01-18T22:27:15.372Z,38.83
2023-01-18T22:29:42.109Z,40.40
2023-01-18T22:32:08.930Z,48.95
2023-01-18T22:34:36.237Z,48.83
2023-01-18T22:37:03.319Z,50.17
2023-01-18T22:39:29.953Z,50.42
2023-01-18T22:41:56.627Z,58.85
2023-01-18T22:44:23.310Z,51.15
2023-01-18T22:46:49.954Z,50.22
2023-01-18T22:49:16.606Z,47.92
2023-01-18T22:51:43.506Z,51.42
2023-01-18T22:54:10.132Z,50.05
2023-01-18T22:56:36.697Z,50.90
2023-01-18T22:59:03.309Z,48.45
2023-01-18T23:01:32.228Z,44.15
2023-01-18T23:04:03.223Z,47.83
2023-01-18T23:06:41.907Z,41.33
2023-01-18T23:09:09.978Z,32.15
2023-01-18T23:11:37.745Z,29.63
2023-01-18T23:14:23.709Z,27.70
2023-01-18T23:17:09.345Z,23.27
2023-01-18T23:19:36.260Z,22.55
2023-01-18T23:22:07.421Z,17.00
2023-01-18T23:24:35.821Z,17.63
2023-01-18T23:27:04.214Z,14.48
2023-01-18T23:29:30.787Z,12.57
2023-01-18T23:31:58.447Z,9.80
2023-01-18T23:34:25.594Z,10.35
2023-01-18T23:36:52.595Z,10.90
2023-01-18T23:39:37.498Z,9.55
2023-01-18T23:42:23.209Z,10.75
2023-01-18T23:45:08.418Z,12.43
2023-01-18T23:47:53.622Z,12.32
2023-01-18T23:50:38.816Z,11.32
2023-01-18T23:53:24.156Z,12.05
2023-01-18T23:55:52.797Z,13.15
2023-01-18T23:58:19.392Z,10.57
